createdAt,value
2023-06-08T00:00:11.969Z,1.95
2023-06-08T00:03:05.563Z,2.30
2023-06-08T00:05:45.151Z,2.35
2023-06-08T00:08:12.830Z,2.22
2023-06-08T00:10:44.059Z,2.35
2023-06-08T00:13:11.645Z,2.05
2023-06-08T00:15:38.744Z,2.15
2023-06-08T00:18:09.913Z,2.35
2023-06-08T00:20:37.318Z,2.60
2023-06-08T00:23:06.063Z,2.63
2023-06-08T00:25:33.275Z,2.47
2023-06-08T00:28:00.998Z,2.58
2023-06-08T00:30:28.143Z,2.20
2023-06-08T00:32:55.534Z,2.08
2023-06-08T00:35:22.521Z,2.28
2023-06-08T00:37:50.268Z,2.22
2023-06-08T00:40:17.345Z,2.03
2023-06-08T00:42:44.571Z,2.60
2023-06-08T00:45:13.227Z,2.28
2023-06-08T00:47:41.506Z,2.28
2023-06-08T00:50:09.575Z,2.20
2023-06-08T00:52:39.773Z,2.47
2023-06-08T00:55:07.404Z,2.20
2023-06-08T00:57:36.407Z,2.80
2023-06-08T01:00:06.466Z,2.08
2023-06-08T01:02:34.785Z,2.40
2023-06-08T01:05:05.110Z,2.63
2023-06-08T01:07:32.311Z,2.63
2023-06-08T01:10:07.164Z,2.60
2023-06-08T01:12:47.566Z,2.50
2023-06-08T01:15:27.142Z,2.40
2023-06-08T01:17:58.832Z,2.30
2023-06-08T01:20:45.840Z,2.50
2023-06-08T01:23:27.356Z,2.10
2023-06-08T01:26:01.939Z,2.13
2023-06-08T01:28:30.005Z,2.40
2023-06-08T01:30:58.212Z,2.35
2023-06-08T01:33:28.263Z,2.17
2023-06-08T01:36:10.051Z,2.08
2023-06-08T01:38:49.578Z,2.33
2023-06-08T01:41:20.101Z,2.58
2023-06-08T01:43:49.090Z,1.52
2023-06-08T01:46:17.205Z,2.22
2023-06-08T01:48:44.955Z,2.53
2023-06-08T01:51:12.339Z,2.80
2023-06-08T01:53:40.121Z,2.85
2023-06-08T01:56:07.074Z,2.42
2023-06-08T01:58:34.618Z,2.25
2023-06-08T02:01:01.590Z,2.40
2023-06-08T02:03:29.113Z,2.28
2023-06-08T02:05:56.099Z,2.13
2023-06-08T02:08:23.350Z,2.10
2023-06-08T02:10:50.511Z,2.35
2023-06-08T02:13:17.826Z,1.92
2023-06-08T02:15:44.956Z,2.30
2023-06-08T02:18:12.434Z,2.33
2023-06-08T02:20:39.438Z,2.42
2023-06-08T02:23:06.739Z,2.33
2023-06-08T02:25:35.244Z,1.85
2023-06-08T02:28:03.389Z,2.47
2023-06-08T02:30:31.479Z,2.53
2023-06-08T02:32:59.054Z,2.30
2023-06-08T02:35:26.565Z,2.08
2023-06-08T02:37:55.140Z,1.80
2023-06-08T02:40:22.288Z,1.67
2023-06-08T02:42:49.580Z,2.35
2023-06-08T02:45:19.703Z,2.60
2023-06-08T02:47:47.184Z,2.60
2023-06-08T02:50:15.139Z,2.35
2023-06-08T02:52:42.466Z,2.72
2023-06-08T02:55:09.714Z,2.35
2023-06-08T02:57:40.126Z,2.30
2023-06-08T03:00:13.935Z,2.72
2023-06-08T03:03:13.621Z,2.42
2023-06-08T03:05:44.633Z,3.00
2023-06-08T03:08:12.676Z,2.38
2023-06-08T03:10:39.672Z,3.20
2023-06-08T03:13:09.608Z,2.67
2023-06-08T03:15:38.064Z,2.65
2023-06-08T03:18:05.697Z,2.95
2023-06-08T03:20:33.878Z,2.55
2023-06-08T03:23:06.336Z,2.63
2023-06-08T03:25:34.986Z,2.78
2023-06-08T03:28:02.902Z,2.60
2023-06-08T03:30:30.461Z,2.35
2023-06-08T03:32:57.843Z,2.65
2023-06-08T03:35:35.633Z,2.80
2023-06-08T03:38:18.786Z,2.90
2023-06-08T03:40:46.851Z,2.67
2023-06-08T03:43:15.040Z,2.78
2023-06-08T03:45:42.487Z,2.70
2023-06-08T03:48:10.457Z,3.00
2023-06-08T03:50:39.185Z,3.00
2023-06-08T03:53:07.579Z,3.33
2023-06-08T03:55:34.571Z,3.03
2023-06-08T03:58:01.896Z,3.42
2023-06-08T04:00:32.330Z,3.10
2023-06-08T04:02:59.830Z,3.78
2023-06-08T04:05:26.925Z,3.78
2023-06-08T04:07:54.334Z,3.30
2023-06-08T04:10:21.434Z,3.80
2023-06-08T04:12:49.225Z,4.00
2023-06-08T04:15:16.446Z,3.78
2023-06-08T04:17:48.260Z,3.72
2023-06-08T04:20:18.833Z,4.10
2023-06-08T04:22:47.020Z,4.13
2023-06-08T04:25:16.362Z,4.10
2023-06-08T04:27:45.021Z,4.10
2023-06-08T04:30:12.793Z,4.18
2023-06-08T04:32:40.969Z,3.53
2023-06-08T04:35:08.792Z,4.20
2023-06-08T04:37:38.124Z,3.83
2023-06-08T04:40:07.363Z,3.25
2023-06-08T04:42:35.841Z,4.00
2023-06-08T04:45:05.297Z,4.07
2023-06-08T04:47:34.480Z,3.65
2023-06-08T04:50:02.334Z,3.95
2023-06-08T04:52:31.429Z,3.90
2023-06-08T04:55:02.416Z,3.90
2023-06-08T04:57:29.894Z,3.75
2023-06-08T04:59:57.186Z,3.50
2023-06-08T05:02:24.563Z,4.03
2023-06-08T05:04:51.716Z,3.40
2023-06-08T05:07:18.922Z,3.80
2023-06-08T05:09:46.294Z,3.30
2023-06-08T05:12:13.628Z,3.92
2023-06-08T05:14:40.784Z,3.42
2023-06-08T05:17:10.039Z,3.38
2023-06-08T05:19:37.131Z,3.90
2023-06-08T05:22:04.680Z,3.70
2023-06-08T05:24:31.936Z,3.60
2023-06-08T05:26:59.255Z,3.63
2023-06-08T05:29:26.189Z,3.75
2023-06-08T05:31:53.489Z,3.50
2023-06-08T05:34:20.708Z,3.65
2023-06-08T05:36:48.292Z,3.72
2023-06-08T05:39:15.254Z,3.85
2023-06-08T05:41:42.530Z,2.95
2023-06-08T05:44:09.689Z,3.00
2023-06-08T05:46:37.216Z,3.53
2023-06-08T05:49:04.271Z,3.60
2023-06-08T05:51:31.558Z,3.15
2023-06-08T05:53:58.563Z,3.22
2023-06-08T05:56:28.221Z,3.20
2023-06-08T05:58:55.523Z,3.00
2023-06-08T06:01:22.798Z,2.78
2023-06-08T06:03:49.985Z,2.92
2023-06-08T06:06:17.731Z,2.95
2023-06-08T06:08:45.156Z,3.00
2023-06-08T06:11:12.510Z,3.13
2023-06-08T06:13:39.418Z,3.13
2023-06-08T06:16:06.942Z,3.22
2023-06-08T06:18:34.111Z,2.90
2023-06-08T06:21:01.285Z,2.83
2023-06-08T06:23:28.409Z,2.55
2023-06-08T06:25:56.084Z,3.05
2023-06-08T06:28:23.047Z,2.53
2023-06-08T06:30:50.422Z,2.10
2023-06-08T06:33:17.630Z,2.20
2023-06-08T06:35:45.227Z,2.55
2023-06-08T06:38:12.254Z,2.58
2023-06-08T06:40:39.572Z,2.40
2023-06-08T06:43:06.578Z,2.38
2023-06-08T06:45:41.666Z,2.10
2023-06-08T06:48:08.997Z,2.13
2023-06-08T06:50:36.398Z,2.25
2023-06-08T06:53:03.368Z,2.13
2023-06-08T06:55:35.712Z,1.88
2023-06-08T06:58:04.049Z,2.38
2023-06-08T07:00:38.423Z,1.83
2023-06-08T07:03:06.280Z,1.90
2023-06-08T07:05:37.852Z,1.88
2023-06-08T07:08:05.793Z,1.83
2023-06-08T07:10:33.095Z,2.20
2023-06-08T07:13:00.904Z,1.80
2023-06-08T07:15:28.557Z,1.80
2023-06-08T07:17:55.972Z,1.77
2023-06-08T07:20:23.277Z,2.25
2023-06-08T07:23:13.419Z,2.03
2023-06-08T07:26:07.748Z,1.80
2023-06-08T07:28:25.853Z,2.08
2023-06-08T07:30:53.083Z,2.10
2023-06-08T07:33:20.102Z,1.75
2023-06-08T07:35:47.744Z,1.63
2023-06-08T07:38:15.934Z,1.85
2023-06-08T07:40:43.252Z,1.95
2023-06-08T07:43:10.321Z,1.80
2023-06-08T07:45:37.658Z,1.70
2023-06-08T07:48:04.929Z,2.20
2023-06-08T07:50:32.803Z,2.17
2023-06-08T07:52:59.789Z,2.28
2023-06-08T07:55:27.020Z,1.70
2023-06-08T07:57:53.956Z,1.90
2023-06-08T08:00:21.919Z,2.20
2023-06-08T08:02:49.424Z,1.85
2023-06-08T08:05:16.960Z,1.90
2023-06-08T08:07:44.653Z,1.90
2023-06-08T08:10:12.137Z,2.08
2023-06-08T08:12:39.261Z,2.00
2023-06-08T08:15:07.338Z,1.90
2023-06-08T08:17:34.249Z,1.95
2023-06-08T08:20:01.855Z,1.77
2023-06-08T08:22:28.928Z,1.90
2023-06-08T08:24:56.151Z,1.73
2023-06-08T08:27:23.268Z,1.88
2023-06-08T08:29:51.045Z,1.73
2023-06-08T08:32:18.113Z,1.52
2023-06-08T08:34:45.381Z,2.22
2023-06-08T08:37:12.379Z,2.10
2023-06-08T08:39:39.569Z,1.85
2023-06-08T08:42:08.435Z,1.90
2023-06-08T08:44:36.638Z,1.88
2023-06-08T08:47:05.906Z,1.70
2023-06-08T08:49:41.214Z,1.70
2023-06-08T08:52:12.066Z,1.88
2023-06-08T08:54:39.776Z,2.00
2023-06-08T08:57:10.592Z,1.90
2023-06-08T08:59:38.053Z,1.60
2023-06-08T09:02:06.170Z,1.60
2023-06-08T09:04:33.506Z,1.88
2023-06-08T09:07:01.302Z,1.70
2023-06-08T09:09:28.723Z,2.15
2023-06-08T09:12:02.192Z,1.67
2023-06-08T09:14:30.368Z,2.30
2023-06-08T09:17:00.291Z,1.85
2023-06-08T09:19:29.224Z,2.20
2023-06-08T09:21:57.235Z,1.77
2023-06-08T09:24:24.606Z,1.95
2023-06-08T09:26:56.543Z,2.10
2023-06-08T09:29:43.035Z,1.92
2023-06-08T09:32:14.064Z,1.90
2023-06-08T09:34:57.926Z,1.80
2023-06-08T09:37:34.146Z,1.75
2023-06-08T09:40:02.452Z,2.03
2023-06-08T09:42:54.898Z,2.05
2023-06-08T09:45:22.537Z,1.92
2023-06-08T09:47:50.276Z,1.88
2023-06-08T09:50:17.667Z,2.10
2023-06-08T09:52:46.422Z,2.00
2023-06-08T09:55:14.015Z,2.08
2023-06-08T09:57:42.050Z,2.05
2023-06-08T10:00:19.234Z,2.10
2023-06-08T10:03:11.584Z,1.92
2023-06-08T10:05:45.520Z,2.10
2023-06-08T10:08:19.504Z,2.50
2023-06-08T10:10:47.046Z,1.92
2023-06-08T10:13:14.516Z,2.00
2023-06-08T10:15:42.662Z,2.05
2023-06-08T10:18:11.115Z,2.17
2023-06-08T10:20:38.797Z,2.35
2023-06-08T10:23:06.428Z,2.05
2023-06-08T10:25:34.400Z,2.10
2023-06-08T10:28:07.412Z,1.85
2023-06-08T10:30:43.336Z,2.08
2023-06-08T10:33:16.634Z,1.65
2023-06-08T10:36:02.745Z,1.92
2023-06-08T10:38:31.045Z,2.30
2023-06-08T10:40:58.357Z,1.95
2023-06-08T10:43:49.582Z,2.28
2023-06-08T10:46:16.640Z,1.83
2023-06-08T10:48:45.645Z,2.03
2023-06-08T10:51:23.340Z,2.15
2023-06-08T10:54:00.569Z,1.90
2023-06-08T10:56:28.481Z,2.45
2023-06-08T10:58:56.450Z,2.10
2023-06-08T11:01:31.437Z,1.75
2023-06-08T11:04:00.574Z,2.00
2023-06-08T11:06:32.056Z,2.00
2023-06-08T11:09:00.998Z,2.30
2023-06-08T11:11:28.243Z,2.00
2023-06-08T11:13:55.253Z,2.17
2023-06-08T11:16:22.928Z,2.70
2023-06-08T11:18:51.162Z,1.80
2023-06-08T11:21:23.243Z,2.22
2023-06-08T11:23:50.525Z,2.00
2023-06-08T11:26:20.640Z,2.30
2023-06-08T11:28:47.683Z,2.20
2023-06-08T11:31:15.308Z,2.40
2023-06-08T11:33:49.301Z,2.30
2023-06-08T11:36:18.534Z,2.28
2023-06-08T11:38:45.645Z,2.00
2023-06-08T11:41:13.496Z,2.00
2023-06-08T11:43:40.814Z,2.30
2023-06-08T11:46:08.640Z,2.10
2023-06-08T11:48:35.752Z,2.25
2023-06-08T11:51:03.268Z,2.17
2023-06-08T11:53:30.308Z,2.25
2023-06-08T11:55:59.009Z,2.17
2023-06-08T11:58:28.076Z,2.67
2023-06-08T12:01:09.751Z,2.28
2023-06-08T12:03:49.015Z,2.45
2023-06-08T12:06:18.288Z,2.00
2023-06-08T12:08:46.780Z,2.15
2023-06-08T12:11:15.474Z,2.10
2023-06-08T12:13:43.719Z,2.10
2023-06-08T12:16:12.200Z,2.08
2023-06-08T12:18:46.435Z,2.15
2023-06-08T12:21:16.560Z,2.30
2023-06-08T12:23:44.390Z,2.03
2023-06-08T12:26:11.892Z,2.20
2023-06-08T12:28:39.684Z,2.17
2023-06-08T12:31:07.524Z,2.30
2023-06-08T12:33:35.264Z,2.22
2023-06-08T12:36:03.195Z,2.38
2023-06-08T12:38:30.270Z,1.90
2023-06-08T12:40:57.879Z,2.05
2023-06-08T12:43:25.935Z,2.15
2023-06-08T12:45:54.694Z,1.67
2023-06-08T12:48:21.972Z,2.22
2023-06-08T12:50:49.716Z,1.73
2023-06-08T12:53:16.832Z,1.95
2023-06-08T12:55:44.400Z,2.20
2023-06-08T12:58:12.089Z,2.22
2023-06-08T13:00:39.729Z,2.10
2023-06-08T13:03:10.287Z,2.20
2023-06-08T13:05:38.093Z,1.92
2023-06-08T13:08:07.495Z,1.75
2023-06-08T13:10:38.885Z,1.70
2023-06-08T13:13:07.948Z,1.95
2023-06-08T13:15:36.548Z,1.70
2023-06-08T13:18:07.342Z,2.03
2023-06-08T13:20:34.660Z,2.00
2023-06-08T13:23:01.979Z,1.77
2023-06-08T13:25:29.016Z,2.17
2023-06-08T13:27:57.410Z,1.63
2023-06-08T13:30:26.072Z,2.05
2023-06-08T13:32:54.831Z,1.88
2023-06-08T13:35:22.103Z,1.90
2023-06-08T13:37:52.263Z,1.83
2023-06-08T13:40:19.763Z,1.65
2023-06-08T13:42:47.642Z,2.10
2023-06-08T13:45:14.764Z,1.80
2023-06-08T13:47:42.708Z,2.20
2023-06-08T13:50:11.337Z,1.92
2023-06-08T13:52:39.609Z,1.60
2023-06-08T13:55:07.217Z,1.73
2023-06-08T13:57:35.090Z,2.10
2023-06-08T14:00:04.640Z,1.70
2023-06-08T14:02:40.637Z,1.77
2023-06-08T14:05:08.775Z,1.83
2023-06-08T14:07:36.596Z,2.75
2023-06-08T14:10:06.784Z,1.85
2023-06-08T14:12:34.627Z,1.63
2023-06-08T14:15:01.975Z,1.80
2023-06-08T14:17:29.854Z,1.80
2023-06-08T14:19:57.112Z,2.10
2023-06-08T14:22:24.764Z,1.85
2023-06-08T14:24:51.794Z,1.75
2023-06-08T14:27:19.018Z,1.88
2023-06-08T14:29:46.559Z,1.98
2023-06-08T14:32:14.257Z,1.85
2023-06-08T14:34:41.508Z,1.70
2023-06-08T14:37:08.756Z,1.90
2023-06-08T14:39:37.534Z,1.90
2023-06-08T14:42:07.442Z,1.65
2023-06-08T14:44:35.182Z,1.58
2023-06-08T14:47:02.945Z,1.65
2023-06-08T14:49:30.305Z,1.92
2023-06-08T14:51:57.588Z,1.50
2023-06-08T14:54:24.642Z,1.65
2023-06-08T14:56:52.323Z,1.70
2023-06-08T14:59:19.300Z,1.40
2023-06-08T15:01:46.704Z,1.65
2023-06-08T15:04:13.826Z,1.52
2023-06-08T15:06:41.779Z,1.45
2023-06-08T15:09:08.682Z,1.60
2023-06-08T15:11:36.019Z,1.30
2023-06-08T15:14:03.071Z,1.40
2023-06-08T15:16:30.605Z,1.45
2023-06-08T15:18:57.703Z,1.45
2023-06-08T15:21:24.978Z,1.70
2023-06-08T15:23:52.141Z,1.67
2023-06-08T15:26:19.424Z,1.50
2023-06-08T15:28:46.435Z,1.67
2023-06-08T15:31:16.297Z,1.52
2023-06-08T15:33:44.158Z,1.80
2023-06-08T15:36:11.506Z,1.50
2023-06-08T15:38:38.538Z,1.50
2023-06-08T15:41:05.959Z,1.85
2023-06-08T15:43:33.044Z,1.60
2023-06-08T15:46:00.357Z,1.80
2023-06-08T15:48:27.603Z,1.50
2023-06-08T15:50:55.928Z,1.63
2023-06-08T15:53:23.037Z,1.60
2023-06-08T15:55:52.591Z,1.90
2023-06-08T15:58:26.490Z,1.75
2023-06-08T16:00:54.834Z,1.80
2023-06-08T16:03:22.635Z,1.63
2023-06-08T16:05:52.045Z,1.83
2023-06-08T16:08:22.255Z,1.80
2023-06-08T16:10:50.089Z,1.65
2023-06-08T16:13:17.337Z,2.03
2023-06-08T16:15:45.188Z,1.90
2023-06-08T16:18:12.325Z,1.85
2023-06-08T16:20:39.794Z,1.98
2023-06-08T16:23:06.829Z,1.75
2023-06-08T16:25:34.181Z,1.88
2023-06-08T16:28:01.197Z,1.60
2023-06-08T16:30:28.677Z,1.90
2023-06-08T16:32:56.430Z,1.75
2023-06-08T16:35:23.798Z,1.88
2023-06-08T16:37:50.976Z,1.70
2023-06-08T16:40:18.378Z,1.55
2023-06-08T16:42:47.578Z,1.67
2023-06-08T16:45:15.634Z,1.42
2023-06-08T16:47:45.108Z,1.35
2023-06-08T16:50:13.805Z,1.50
2023-06-08T16:52:40.817Z,1.50
2023-06-08T16:55:08.915Z,1.48
2023-06-08T16:57:36.459Z,1.58
2023-06-08T17:00:08.532Z,1.50
2023-06-08T17:02:36.527Z,1.70
2023-06-08T17:05:04.154Z,1.42
2023-06-08T17:07:31.279Z,1.80
2023-06-08T17:09:58.575Z,1.55
2023-06-08T17:12:26.146Z,1.42
2023-06-08T17:14:53.444Z,1.70
2023-06-08T17:17:20.455Z,1.85
2023-06-08T17:19:47.911Z,1.67
2023-06-08T17:22:14.967Z,1.15
2023-06-08T17:24:42.395Z,1.60
2023-06-08T17:27:09.456Z,1.75
2023-06-08T17:29:36.906Z,1.60
2023-06-08T17:32:04.234Z,1.70
2023-06-08T17:34:31.665Z,1.90
2023-06-08T17:36:58.734Z,1.92
2023-06-08T17:39:26.054Z,1.52
2023-06-08T17:41:53.192Z,1.80
2023-06-08T17:44:20.579Z,2.13
2023-06-08T17:46:47.672Z,1.65
2023-06-08T17:49:15.033Z,2.00
2023-06-08T17:51:42.335Z,1.70
2023-06-08T17:54:12.418Z,1.92
2023-06-08T17:56:44.288Z,1.52
2023-06-08T17:59:12.893Z,1.77
2023-06-08T18:01:40.011Z,1.70
2023-06-08T18:04:08.055Z,1.98
2023-06-08T18:06:36.493Z,1.63
2023-06-08T18:09:04.140Z,1.90
2023-06-08T18:11:31.545Z,1.98
2023-06-08T18:13:58.986Z,1.73
2023-06-08T18:16:26.378Z,1.80
2023-06-08T18:18:54.169Z,2.00
2023-06-08T18:21:21.721Z,1.92
2023-06-08T18:23:54.660Z,1.60
2023-06-08T18:26:22.501Z,2.00
2023-06-08T18:28:54.892Z,1.80
2023-06-08T18:31:27.523Z,1.55
2023-06-08T18:33:54.866Z,2.03
2023-06-08T18:36:27.565Z,1.92
2023-06-08T18:38:56.446Z,1.83
2023-06-08T18:41:23.697Z,2.47
2023-06-08T18:43:51.353Z,1.50
2023-06-08T18:46:18.789Z,1.80
2023-06-08T18:48:46.423Z,1.80
2023-06-08T18:51:13.363Z,2.10
2023-06-08T18:53:40.688Z,1.88
2023-06-08T18:56:08.019Z,2.13
2023-06-08T18:58:35.839Z,1.85
2023-06-08T19:01:03.264Z,2.08
2023-06-08T19:03:30.941Z,1.90
2023-06-08T19:05:58.215Z,1.70
2023-06-08T19:08:25.591Z,2.03
2023-06-08T19:10:52.660Z,2.13
2023-06-08T19:13:32.287Z,1.85
2023-06-08T19:16:07.775Z,2.40
2023-06-08T19:18:35.428Z,2.03
2023-06-08T19:21:02.908Z,2.08
2023-06-08T19:23:30.102Z,1.98
2023-06-08T19:25:57.441Z,2.13
2023-06-08T19:28:24.713Z,2.72
2023-06-08T19:30:52.017Z,2.35
2023-06-08T19:33:19.426Z,2.42
2023-06-08T19:35:46.899Z,1.90
2023-06-08T19:38:13.864Z,2.05
2023-06-08T19:40:41.259Z,2.10
2023-06-08T19:43:08.322Z,1.98
2023-06-08T19:45:35.661Z,2.08
2023-06-08T19:48:02.971Z,1.85
2023-06-08T19:50:31.820Z,2.03
2023-06-08T19:52:58.951Z,2.20
2023-06-08T19:55:26.982Z,1.85
2023-06-08T19:57:54.086Z,2.20
2023-06-08T20:00:21.511Z,2.20
2023-06-08T20:02:48.549Z,2.50
2023-06-08T20:05:17.789Z,2.13
2023-06-08T20:07:44.777Z,2.30
2023-06-08T20:10:12.141Z,2.58
2023-06-08T20:12:39.702Z,2.40
2023-06-08T20:15:07.715Z,2.75
2023-06-08T20:17:35.744Z,2.40
2023-06-08T20:20:04.789Z,2.55
2023-06-08T20:22:34.385Z,2.13
2023-06-08T20:25:01.867Z,2.45
2023-06-08T20:27:29.059Z,1.83
2023-06-08T20:29:57.241Z,2.25
2023-06-08T20:32:24.297Z,2.17
2023-06-08T20:34:51.657Z,2.50
2023-06-08T20:37:18.686Z,2.42
2023-06-08T20:39:46.082Z,2.50
2023-06-08T20:42:13.272Z,2.55
2023-06-08T20:44:40.480Z,2.38
2023-06-08T20:47:07.509Z,2.35
2023-06-08T20:49:36.114Z,2.10
2023-06-08T20:52:05.919Z,2.47
2023-06-08T20:54:33.352Z,2.53
2023-06-08T20:57:00.714Z,2.88
2023-06-08T20:59:28.079Z,2.25
2023-06-08T21:01:55.207Z,2.20
2023-06-08T21:04:30.222Z,2.40
2023-06-08T21:06:58.723Z,2.45
2023-06-08T21:09:26.539Z,2.63
2023-06-08T21:11:54.894Z,2.55
2023-06-08T21:14:27.409Z,2.25
2023-06-08T21:16:54.794Z,1.92
2023-06-08T21:19:22.181Z,2.15
2023-06-08T21:21:49.197Z,2.42
2023-06-08T21:24:16.743Z,2.08
2023-06-08T21:26:44.448Z,2.65
2023-06-08T21:29:11.709Z,2.60
2023-06-08T21:31:38.782Z,2.80
2023-06-08T21:34:06.226Z,2.00
2023-06-08T21:36:33.183Z,2.45
2023-06-08T21:39:00.466Z,2.08
2023-06-08T21:41:27.625Z,2.20
2023-06-08T21:43:54.942Z,2.35
2023-06-08T21:46:21.980Z,2.60
2023-06-08T21:48:49.329Z,2.58
2023-06-08T21:51:16.355Z,2.95
2023-06-08T21:53:43.608Z,3.10
2023-06-08T21:56:11.299Z,2.63
2023-06-08T21:58:38.628Z,2.72
2023-06-08T22:01:06.029Z,2.95
2023-06-08T22:03:33.520Z,2.85
2023-06-08T22:06:00.658Z,3.15
2023-06-08T22:08:28.085Z,2.60
2023-06-08T22:10:55.030Z,2.85
2023-06-08T22:13:25.473Z,2.60
2023-06-08T22:15:53.421Z,2.88
2023-06-08T22:18:20.817Z,2.80
2023-06-08T22:20:48.972Z,2.40
2023-06-08T22:23:17.200Z,2.40
2023-06-08T22:25:44.178Z,2.60
2023-06-08T22:28:13.855Z,2.50
2023-06-08T22:30:41.797Z,2.78
2023-06-08T22:33:09.107Z,2.40
2023-06-08T22:35:36.100Z,2.33
2023-06-08T22:38:03.467Z,2.33
2023-06-08T22:40:30.379Z,2.60
2023-06-08T22:42:57.632Z,2.58
2023-06-08T22:45:24.680Z,2.88
2023-06-08T22:47:52.612Z,2.95
2023-06-08T22:50:20.301Z,2.58
2023-06-08T22:52:47.735Z,2.35
2023-06-08T22:55:14.822Z,2.30
2023-06-08T22:57:43.973Z,2.63
2023-06-08T23:00:12.172Z,2.80
2023-06-08T23:02:42.396Z,2.35
2023-06-08T23:05:10.626Z,2.60
2023-06-08T23:07:38.957Z,2.42
2023-06-08T23:10:07.014Z,2.42
2023-06-08T23:12:34.497Z,2.95
2023-06-08T23:15:03.626Z,3.13
2023-06-08T23:17:31.634Z,2.75
2023-06-08T23:19:58.727Z,2.78
2023-06-08T23:22:26.986Z,2.60
2023-06-08T23:24:54.691Z,3.03
2023-06-08T23:27:23.473Z,2.72
2023-06-08T23:29:50.659Z,3.13
2023-06-08T23:32:19.039Z,2.70
2023-06-08T23:34:48.208Z,2.90
2023-06-08T23:37:19.403Z,3.28
2023-06-08T23:39:47.385Z,3.65
2023-06-08T23:42:17.606Z,3.30
2023-06-08T23:44:44.794Z,3.10
2023-06-08T23:47:14.430Z,3.50
2023-06-08T23:49:43.328Z,3.60
2023-06-08T23:52:10.854Z,3.67
2023-06-08T23:54:37.914Z,3.35
2023-06-08T23:57:05.206Z,3.40
2023-06-08T23:59:32.349Z,3.20
